Time;durP1;ratioP1;P1;durP2;ratioP2;P2;SDS_P1;SDS_P2;PMS_P1;PMS_P2;Temp;Humidity;BMP_temperature;BMP_pressure;BME280_temperature;BME280_humidity;BME280_pressure;Samples;Min_cycle;Max_cycle;Signal;HPM_P1;HPM_P2
2022/07/28 04:01:03;;;;;;;3.70;1.80;;;9.60;96.30;;;;;;5719551;23;20531;-79
2022/07/28 04:03:29;;;;;;;4.40;1.30;;;10.20;96.30;;;;;;5003995;28;20490;-79
2022/07/28 04:05:55;;;;;;;2.80;1.30;;;10.70;96.30;;;;;;4995143;28;20713;-79
2022/07/28 04:08:21;;;;;;;3.33;1.10;;;11.20;96.30;;;;;;4995346;28;20520;-79
2022/07/28 04:10:46;;;;;;;2.47;1.33;;;11.70;96.30;;;;;;5012467;28;20447;-79
2022/07/28 04:13:12;;;;;;;4.90;1.77;;;12.10;96.30;;;;;;5017029;28;20169;-79
2022/07/28 04:15:38;;;;;;;1.77;1.33;;;12.20;96.30;;;;;;5019879;28;20248;-80
2022/07/28 04:18:04;;;;;;;3.23;1.20;;;12.50;96.30;;;;;;5011240;28;20272;-76
2022/07/28 04:20:29;;;;;;;9.30;1.93;;;12.70;96.30;;;;;;4990418;28;20196;-76
2022/07/28 04:22:56;;;;;;;3.47;1.33;;;12.80;96.30;;;;;;4990914;28;20779;-76
2022/07/28 04:25:24;;;;;;;2.43;1.50;;;13.60;96.30;;;;;;4990932;28;20189;-76
2022/07/28 04:27:50;;;;;;;3.20;1.50;;;13.90;96.30;;;;;;4990756;28;20488;-76
2022/07/28 04:30:18;;;;;;;1.87;1.40;;;14.80;96.30;;;;;;4991125;28;20419;-76
2022/07/28 04:32:47;;;;;;;6.10;1.50;;;15.20;96.30;;;;;;4991726;28;20468;-76
2022/07/28 04:35:14;;;;;;;3.10;1.40;;;15.50;96.30;;;;;;4988441;28;20425;-76
2022/07/28 04:37:40;;;;;;;3.50;1.67;;;15.70;95.80;;;;;;4984228;28;20900;-76
2022/07/28 04:40:08;;;;;;;3.77;1.50;;;15.80;95.20;;;;;;4996989;28;20430;-76
2022/07/28 04:42:34;;;;;;;3.03;1.33;;;15.90;94.90;;;;;;5014488;28;20192;-76
2022/07/28 04:45:00;;;;;;;2.80;1.60;;;16.00;94.80;;;;;;5015516;28;20411;-76
2022/07/28 04:47:27;;;;;;;3.30;1.70;;;16.40;93.50;;;;;;5015601;28;20891;-77
2022/07/28 04:49:53;;;;;;;5.23;1.60;;;16.30;93.70;;;;;;5015492;28;20183;-76
2022/07/28 04:52:19;;;;;;;4.10;1.67;;;16.00;95.80;;;;;;5014094;28;20834;-77
2022/07/28 04:54:45;;;;;;;11.13;1.60;;;16.20;93.80;;;;;;5015462;28;20662;-77
2022/07/28 04:57:10;;;;;;;3.73;1.40;;;17.20;93.10;;;;;;5015594;28;20443;-77
2022/07/28 04:59:36;;;;;;;7.57;1.57;;;17.50;90.70;;;;;;5015282;28;20699;-77
2022/07/28 05:02:02;;;;;;;3.23;1.50;;;18.20;89.40;;;;;;5014003;28;20217;-79
2022/07/28 05:04:27;;;;;;;3.13;1.50;;;18.90;86.60;;;;;;5015568;28;20219;-78
2022/07/28 05:06:53;;;;;;;3.30;1.60;;;19.20;85.80;;;;;;4995538;28;20175;-82
2022/07/28 05:09:19;;;;;;;4.40;1.40;;;20.10;83.30;;;;;;4987660;28;20178;-81
2022/07/28 05:11:44;;;;;;;2.37;1.83;;;20.70;81.50;;;;;;4985988;28;20197;-81
2022/07/28 05:14:10;;;;;;;2.17;1.77;;;20.60;81.50;;;;;;4980628;28;20175;-80
2022/07/28 05:16:36;;;;;;;2.93;2.17;;;20.60;80.40;;;;;;4989079;28;20539;-79
2022/07/28 05:19:01;;;;;;;5.13;1.80;;;20.40;81.30;;;;;;4995208;28;20177;-81
2022/07/28 05:21:27;;;;;;;4.27;2.00;;;19.90;82.70;;;;;;4995560;28;20597;-80
2022/07/28 05:23:53;;;;;;;4.93;1.57;;;19.60;83.10;;;;;;4995761;28;20174;-78
2022/07/28 05:26:18;;;;;;;10.03;1.67;;;19.60;82.90;;;;;;4989426;28;20196;-78
2022/07/28 05:28:44;;;;;;;7.90;2.00;;;18.60;85.20;;;;;;4976525;28;20667;-78
2022/07/28 05:31:09;;;;;;;3.87;1.90;;;18.20;87.00;;;;;;4976482;28;20678;-79
2022/07/28 05:33:35;;;;;;;3.63;1.70;;;17.90;88.10;;;;;;4979895;28;20178;-80
2022/07/28 05:36:02;;;;;;;6.73;2.13;;;18.30;87.30;;;;;;4998239;28;20184;-79
2022/07/28 05:38:29;;;;;;;4.40;2.43;;;18.10;87.00;;;;;;4997677;28;20533;-79
2022/07/28 05:40:55;;;;;;;2.30;1.60;;;18.20;88.10;;;;;;5008206;28;20436;-79
2022/07/28 05:43:21;;;;;;;4.97;2.53;;;18.90;86.10;;;;;;5004464;28;20498;-77
2022/07/28 05:45:46;;;;;;;10.70;1.87;;;19.30;84.90;;;;;;4995155;28;20244;-77
2022/07/28 05:48:15;;;;;;;4.17;1.90;;;19.10;85.30;;;;;;4994272;28;20185;-77
2022/07/28 05:50:40;;;;;;;7.67;2.57;;;19.40;84.50;;;;;;4994864;28;20284;-77
2022/07/28 05:53:06;;;;;;;3.10;1.70;;;19.20;85.10;;;;;;4995012;28;20821;-77
2022/07/28 05:55:31;;;;;;;7.70;1.97;;;19.50;85.30;;;;;;4994613;28;20169;-77
2022/07/28 05:57:58;;;;;;;5.60;1.83;;;19.60;84.60;;;;;;4994588;28;20181;-78
2022/07/28 06:00:25;;;;;;;2.27;1.77;;;19.60;84.60;;;;;;4988346;28;20171;-80
2022/07/28 06:02:51;;;;;;;6.80;2.10;;;19.70;85.20;;;;;;4986400;28;20432;-79
2022/07/28 06:05:19;;;;;;;3.13;1.80;;;19.80;84.70;;;;;;4997218;28;20447;-79
2022/07/28 06:07:46;;;;;;;4.30;2.17;;;20.40;83.40;;;;;;4996397;28;20492;-79
2022/07/28 06:10:14;;;;;;;2.90;1.80;;;21.30;80.80;;;;;;5001432;28;20536;-80
2022/07/28 06:12:41;;;;;;;4.30;1.80;;;21.00;81.40;;;;;;4986403;28;20472;-78
2022/07/28 06:15:12;;;;;;;4.10;1.93;;;20.50;81.90;;;;;;4979141;28;20436;-79
2022/07/28 06:17:37;;;;;;;4.07;1.97;;;19.90;83.80;;;;;;4998368;28;20524;-79
2022/07/28 06:20:03;;;;;;;2.53;2.13;;;19.40;85.70;;;;;;4991158;28;20440;-80
2022/07/28 06:22:38;;;;;;;4.30;2.73;;;19.30;86.80;;;;;;4992010;28;20578;-79
2022/07/28 06:25:04;;;;;;;2.27;1.70;;;18.60;87.90;;;;;;4990246;28;20248;-81
2022/07/28 06:27:30;;;;;;;3.00;2.07;;;18.80;89.00;;;;;;4990857;28;20976;-79
2022/07/28 06:29:55;;;;;;;6.90;1.93;;;19.60;87.40;;;;;;4986867;28;20189;-78
2022/07/28 06:32:21;;;;;;;6.30;2.00;;;20.90;83.50;;;;;;4991076;28;20241;-79
2022/07/28 06:34:46;;;;;;;2.50;1.63;;;22.30;80.20;;;;;;5000825;28;20560;-77
2022/07/28 06:37:12;;;;;;;7.17;2.37;;;23.50;77.30;;;;;;5000984;28;20205;-80
2022/07/28 06:39:37;;;;;;;4.10;2.23;;;23.50;76.40;;;;;;5003894;28;20197;-79
2022/07/28 06:42:03;;;;;;;3.53;2.00;;;23.00;77.00;;;;;;5018130;28;20662;-79
2022/07/28 06:44:28;;;;;;;2.70;2.00;;;22.90;77.30;;;;;;5004837;28;20186;-79
2022/07/28 06:46:54;;;;;;;3.50;2.20;;;22.60;79.10;;;;;;5000079;28;20552;-78
2022/07/28 06:49:19;;;;;;;3.43;1.80;;;22.20;78.00;;;;;;4994240;28;20662;-78
2022/07/28 06:51:44;;;;;;;5.10;2.50;;;22.40;79.40;;;;;;4993566;28;20209;-80
2022/07/28 06:54:10;;;;;;;8.90;2.10;;;23.00;78.00;;;;;;4994245;28;20190;-78
2022/07/28 06:56:36;;;;;;;5.07;2.00;;;24.40;74.50;;;;;;4991882;28;20324;-78
2022/07/28 06:59:01;;;;;;;2.87;1.97;;;24.40;74.50;;;;;;4994123;28;20447;-79
2022/07/28 07:01:27;;;;;;;9.23;2.00;;;24.40;75.30;;;;;;4993288;28;20224;-78
2022/07/28 07:03:52;;;;;;;2.53;1.80;;;25.10;73.10;;;;;;4993508;28;20189;-77
2022/07/28 07:06:18;;;;;;;5.90;1.40;;;26.20;70.00;;;;;;4994172;28;20669;-78
2022/07/28 07:08:43;;;;;;;2.40;1.30;;;26.40;68.90;;;;;;4992694;28;20189;-79
2022/07/28 07:11:09;;;;;;;7.30;1.60;;;27.00;66.30;;;;;;4992006;28;21595;-78
2022/07/28 07:13:35;;;;;;;6.50;1.70;;;26.70;68.00;;;;;;4989672;28;20543;-78
2022/07/28 07:16:01;;;;;;;6.43;1.77;;;26.60;68.80;;;;;;4984187;28;20177;-79
2022/07/28 07:18:26;;;;;;;4.97;2.07;;;27.10;66.50;;;;;;4992828;28;20486;-79
2022/07/28 07:20:53;;;;;;;3.27;1.43;;;26.60;67.30;;;;;;4994106;28;20203;-77
2022/07/28 07:23:18;;;;;;;3.87;1.47;;;26.40;66.50;;;;;;4990480;28;20244;-77
2022/07/28 07:25:44;;;;;;;3.10;1.60;;;26.40;67.90;;;;;;4997193;28;20467;-77
2022/07/28 07:28:10;;;;;;;3.43;1.50;;;26.40;67.80;;;;;;4996284;28;20224;-77
2022/07/28 07:30:35;;;;;;;5.33;2.00;;;26.70;65.90;;;;;;4998099;28;20205;-78
2022/07/28 07:33:01;;;;;;;3.20;1.60;;;25.90;70.20;;;;;;4996762;28;20213;-75
2022/07/28 07:35:26;;;;;;;4.03;1.90;;;26.00;69.20;;;;;;4998364;28;20165;-76
2022/07/28 07:37:52;;;;;;;3.10;1.80;;;26.70;67.00;;;;;;4997436;28;20189;-81
2022/07/28 07:40:18;;;;;;;2.33;1.37;;;27.00;62.90;;;;;;4998138;28;20177;-82
2022/07/28 07:42:43;;;;;;;2.47;1.53;;;27.30;62.60;;;;;;4998444;28;20185;-82
2022/07/28 07:45:09;;;;;;;3.43;1.50;;;27.40;62.50;;;;;;4988028;28;20428;-80
2022/07/28 07:47:35;;;;;;;9.60;1.40;;;27.00;61.90;;;;;;4987177;28;20189;-78
2022/07/28 07:50:00;;;;;;;8.40;1.93;;;27.60;62.50;;;;;;4987709;28;20435;-77
2022/07/28 07:52:26;;;;;;;6.27;2.20;;;28.10;62.20;;;;;;4987652;28;20560;-79
2022/07/28 07:54:51;;;;;;;4.50;1.57;;;27.80;61.20;;;;;;4984268;28;20556;-76
2022/07/28 07:57:17;;;;;;;4.40;1.87;;;27.00;63.90;;;;;;4989542;28;20656;-76
2022/07/28 07:59:42;;;;;;;5.33;1.67;;;27.20;62.00;;;;;;5003809;28;20185;-76
2022/07/28 08:02:08;;;;;;;4.63;1.80;;;26.50;63.30;;;;;;5003585;28;20214;-77
2022/07/28 08:04:34;;;;;;;1.93;1.40;;;27.70;62.20;;;;;;5000971;28;20193;-77
2022/07/28 08:06:59;;;;;;;1.30;1.10;;;27.50;62.20;;;;;;5002688;28;20706;-77
2022/07/28 08:09:25;;;;;;;9.10;1.87;;;28.10;59.20;;;;;;5006548;28;20649;-79
2022/07/28 08:11:50;;;;;;;4.40;2.10;;;28.30;59.20;;;;;;5003162;28;20207;-79
2022/07/28 08:14:16;;;;;;;11.47;1.60;;;28.30;59.90;;;;;;5002957;28;20185;-76
2022/07/28 08:16:42;;;;;;;6.40;1.40;;;28.80;60.70;;;;;;5007852;28;20180;-77
2022/07/28 08:19:07;;;;;;;4.50;1.73;;;29.30;58.60;;;;;;5007380;28;20177;-78
2022/07/28 08:21:33;;;;;;;3.10;1.20;;;29.50;56.80;;;;;;5007875;28;20205;-78
2022/07/28 08:23:58;;;;;;;3.70;1.30;;;28.00;59.10;;;;;;5001186;28;20185;-77
2022/07/28 08:26:24;;;;;;;3.37;1.50;;;28.90;59.50;;;;;;5004241;28;20201;-77
2022/07/28 08:28:50;;;;;;;8.40;2.20;;;29.10;60.80;;;;;;5008646;28;20667;-79
2022/07/28 08:31:20;;;;;;;3.60;1.50;;;28.40;57.50;;;;;;5008559;28;20203;-79
2022/07/28 08:33:47;;;;;;;8.73;1.43;;;28.60;57.60;;;;;;5009496;28;20470;-79
2022/07/28 08:36:12;;;;;;;2.40;1.50;;;28.70;57.80;;;;;;5010041;28;20416;-77
2022/07/28 08:38:38;;;;;;;3.87;1.40;;;28.50;58.30;;;;;;5009482;28;20502;-80
2022/07/28 08:41:07;;;;;;;5.03;1.30;;;27.20;58.80;;;;;;5009844;28;20208;-77
2022/07/28 08:43:33;;;;;;;5.97;1.43;;;26.70;60.20;;;;;;5008169;28;20209;-77
2022/07/28 08:46:00;;;;;;;2.20;1.07;;;26.60;60.30;;;;;;4996523;28;20424;-82
2022/07/28 08:48:34;;;;;;;3.43;1.30;;;26.60;60.10;;;;;;4994174;28;20420;-80
2022/07/28 08:51:03;;;;;;;2.30;1.27;;;27.70;61.30;;;;;;4998148;28;21021;-79
2022/07/28 08:53:30;;;;;;;2.50;1.03;;;27.40;58.80;;;;;;5005871;28;20424;-82
2022/07/28 08:56:03;;;;;;;6.90;1.60;;;27.50;58.60;;;;;;5009865;28;20443;-81
2022/07/28 08:58:31;;;;;;;2.30;1.33;;;27.20;59.60;;;;;;5020174;28;20435;-76
2022/07/28 09:00:57;;;;;;;5.23;1.17;;;26.10;61.20;;;;;;5013009;28;20486;-76
2022/07/28 09:03:22;;;;;;;2.50;1.37;;;26.00;61.20;;;;;;4997406;28;20977;-75
2022/07/28 09:05:49;;;;;;;2.80;1.20;;;26.20;60.70;;;;;;4996427;28;20432;-75
2022/07/28 09:08:17;;;;;;;4.80;1.47;;;25.80;61.00;;;;;;4996330;28;20192;-75
2022/07/28 09:10:43;;;;;;;2.47;1.87;;;25.30;62.90;;;;;;4995918;28;20484;-76
2022/07/28 09:13:09;;;;;;;2.67;1.20;;;26.50;62.40;;;;;;4995947;28;20433;-76
2022/07/28 09:15:36;;;;;;;2.10;1.07;;;27.10;60.50;;;;;;4996026;28;20165;-76
2022/07/28 09:18:02;;;;;;;7.23;1.33;;;26.50;60.10;;;;;;4995793;28;20227;-76
2022/07/28 09:20:28;;;;;;;3.73;0.90;;;26.20;60.10;;;;;;4996184;28;20444;-76
2022/07/28 09:23:01;;;;;;;2.10;1.17;;;25.30;61.60;;;;;;4995968;28;20439;-76
2022/07/28 09:25:27;;;;;;;2.60;1.10;;;25.90;61.80;;;;;;4995884;28;20158;-76
2022/07/28 09:27:53;;;;;;;3.07;1.43;;;25.00;61.90;;;;;;4995601;28;20508;-76
2022/07/28 09:30:33;;;;;;;2.33;1.33;;;25.70;61.90;;;;;;4995653;28;20405;-75
2022/07/28 09:33:16;;;;;;;4.10;1.20;;;26.10;61.90;;;;;;4995350;28;20464;-75
2022/07/28 09:35:53;;;;;;;4.87;1.40;;;26.80;62.20;;;;;;4995477;28;20421;-76
2022/07/28 09:38:22;;;;;;;3.10;1.20;;;26.40;60.80;;;;;;4995417;28;20753;-76
2022/07/28 09:40:59;;;;;;;2.53;1.20;;;25.20;61.70;;;;;;4997980;28;20982;-76
2022/07/28 09:43:33;;;;;;;3.60;1.40;;;24.70;63.80;;;;;;4996399;28;20409;-75
2022/07/28 09:46:12;;;;;;;7.07;1.57;;;24.30;64.10;;;;;;4996229;28;20444;-78
2022/07/28 09:48:49;;;;;;;5.27;1.60;;;24.20;63.60;;;;;;4995519;28;20496;-76
2022/07/28 09:51:23;;;;;;;5.70;1.20;;;24.60;64.80;;;;;;4995319;28;20555;-75
2022/07/28 09:53:50;;;;;;;4.13;1.63;;;25.50;64.40;;;;;;4995547;28;20416;-76
2022/07/28 09:56:16;;;;;;;4.50;1.10;;;26.50;62.80;;;;;;4984756;28;20557;-79
2022/07/28 09:58:53;;;;;;;8.43;1.20;;;26.40;60.90;;;;;;4978391;28;21022;-77
2022/07/28 10:01:19;;;;;;;4.27;1.37;;;25.50;62.30;;;;;;4980876;28;20212;-77
2022/07/28 10:03:50;;;;;;;3.33;1.20;;;25.20;63.00;;;;;;4980946;28;20815;-81
2022/07/28 10:06:27;;;;;;;2.60;1.37;;;25.70;63.10;;;;;;4980309;28;20424;-78
2022/07/28 10:08:55;;;;;;;3.30;1.40;;;25.50;62.90;;;;;;4992325;28;20457;-75
2022/07/28 10:11:25;;;;;;;2.40;1.13;;;25.60;63.10;;;;;;5010461;28;20466;-77
2022/07/28 10:14:03;;;;;;;8.93;1.30;;;25.60;62.50;;;;;;4988740;28;20792;-75
2022/07/28 10:16:33;;;;;;;4.10;1.20;;;25.00;63.50;;;;;;4975024;28;20890;-75
2022/07/28 10:19:01;;;;;;;1.63;1.07;;;24.70;63.00;;;;;;4994067;28;20413;-75
2022/07/28 10:21:29;;;;;;;2.10;1.17;;;24.30;64.20;;;;;;4994158;28;20908;-75
2022/07/28 10:23:57;;;;;;;2.73;1.40;;;24.60;64.50;;;;;;4977823;28;20426;-81
2022/07/28 10:26:47;;;;;;;3.07;1.37;;;24.70;64.50;;;;;;4995503;28;20469;-76
2022/07/28 10:29:15;;;;;;;2.07;0.90;;;25.10;63.10;;;;;;4995110;28;20420;-76
2022/07/28 11:00:26;;;;;;;5.07;1.43;;;26.80;61.80;;;;;;4953079;29;20470;-75
2022/07/28 11:03:00;;;;;;;3.00;1.10;;;25.90;62.70;;;;;;4925756;29;20415;-77
2022/07/28 11:05:40;;;;;;;5.70;2.00;;;26.70;63.40;;;;;;4920445;29;20782;-75
2022/07/28 11:08:25;;;;;;;3.27;1.50;;;27.00;62.90;;;;;;4923217;29;20446;-75
2022/07/28 11:10:52;;;;;;;2.50;1.20;;;26.60;61.90;;;;;;4935542;29;20435;-75
2022/07/28 11:13:22;;;;;;;6.13;1.50;;;26.80;62.40;;;;;;4935476;29;20742;-75
2022/07/28 11:15:48;;;;;;;3.23;1.40;;;26.80;62.20;;;;;;4935286;29;20799;-76
2022/07/28 11:18:13;;;;;;;3.80;1.57;;;27.40;63.10;;;;;;4935169;29;20451;-74
2022/07/28 11:20:56;;;;;;;3.17;1.47;;;27.90;63.60;;;;;;4935384;29;20726;-75
2022/07/28 11:23:43;;;;;;;2.47;1.80;;;27.90;60.10;;;;;;4934878;29;20233;-75
2022/07/28 11:26:23;;;;;;;4.90;1.97;;;27.30;62.10;;;;;;4935181;29;20411;-75
2022/07/28 11:29:07;;;;;;;8.47;1.53;;;27.60;63.00;;;;;;4935218;29;20433;-75
2022/07/28 11:31:47;;;;;;;8.30;1.73;;;28.00;58.50;;;;;;4920077;29;20459;-77
2022/07/28 11:34:17;;;;;;;1.97;1.40;;;27.10;62.30;;;;;;4916205;29;20411;-76
2022/07/28 11:37:06;;;;;;;8.43;1.90;;;26.70;64.60;;;;;;4916569;29;20415;-77
2022/07/28 11:39:34;;;;;;;2.80;1.53;;;27.10;61.10;;;;;;4914436;29;20411;-76
2022/07/28 11:42:25;;;;;;;3.70;1.27;;;26.60;61.30;;;;;;4924454;29;20438;-77
2022/07/28 11:44:51;;;;;;;4.00;1.70;;;26.30;64.50;;;;;;4935223;29;20395;-76
2022/07/28 11:47:27;;;;;;;5.60;1.70;;;27.80;62.60;;;;;;4935151;29;20426;-79
2022/07/28 11:50:14;;;;;;;2.90;1.87;;;28.20;59.90;;;;;;4934701;29;20471;-77
2022/07/28 11:52:52;;;;;;;7.33;2.40;;;28.10;63.30;;;;;;4934914;29;20860;-77
2022/07/28 11:55:17;;;;;;;6.10;1.70;;;28.10;59.90;;;;;;4934845;29;20418;-78
2022/07/28 11:57:44;;;;;;;8.57;1.90;;;28.20;59.70;;;;;;4934744;29;20429;-77
2022/07/28 12:00:10;;;;;;;3.53;1.50;;;27.40;59.70;;;;;;4923094;29;20274;-80
2022/07/28 12:02:35;;;;;;;7.00;2.87;;;27.00;61.70;;;;;;4918913;29;20538;-79
2022/07/28 12:05:08;;;;;;;4.60;1.90;;;27.10;60.70;;;;;;4922115;29;20254;-77
2022/07/28 12:07:45;;;;;;;7.43;4.17;;;27.00;62.20;;;;;;4932121;29;20555;-77
2022/07/28 12:10:30;;;;;;;12.10;4.87;;;27.20;61.80;;;;;;4934221;29;20419;-78
2022/07/28 12:13:02;;;;;;;13.93;4.70;;;27.00;59.90;;;;;;4933847;29;20997;-77
2022/07/28 12:15:27;;;;;;;3.10;2.20;;;26.20;61.80;;;;;;4933827;29;20395;-77
2022/07/28 12:17:54;;;;;;;3.90;2.40;;;25.60;62.80;;;;;;4933072;29;20421;-77
2022/07/28 12:20:20;;;;;;;5.10;2.60;;;26.00;63.40;;;;;;4921660;29;20172;-76
2022/07/28 12:23:01;;;;;;;7.60;4.97;;;26.60;61.70;;;;;;4933323;29;20415;-78
2022/07/28 12:25:27;;;;;;;8.03;4.90;;;26.70;60.80;;;;;;4934100;29;20175;-78
2022/07/28 12:27:53;;;;;;;8.87;4.43;;;26.60;61.10;;;;;;4930295;29;20958;-78
2022/07/28 12:30:26;;;;;;;7.10;4.27;;;26.40;60.90;;;;;;4931704;29;20175;-78
2022/07/28 12:32:53;;;;;;;12.27;5.97;;;26.70;63.70;;;;;;4932652;29;20469;-77
2022/07/28 12:35:19;;;;;;;9.63;4.80;;;26.70;61.40;;;;;;4928927;29;20451;-78
2022/07/28 12:37:49;;;;;;;6.20;3.00;;;27.50;63.10;;;;;;4928619;29;20924;-80
2022/07/28 12:40:17;;;;;;;7.30;2.43;;;28.10;59.00;;;;;;4925908;29;20507;-78
2022/07/28 12:42:44;;;;;;;10.80;6.40;;;28.20;59.50;;;;;;4945838;28;20423;-78
2022/07/28 12:45:11;;;;;;;12.43;8.20;;;28.50;57.90;;;;;;4915283;29;20995;-79
2022/07/28 12:47:37;;;;;;;15.33;8.27;;;27.90;58.70;;;;;;4915249;29;20435;-78
2022/07/28 12:50:20;;;;;;;14.77;6.80;;;26.10;60.80;;;;;;4931453;29;20506;-78
2022/07/28 12:53:07;;;;;;;20.13;9.40;;;25.20;62.70;;;;;;4934477;29;20454;-78
2022/07/28 12:55:33;;;;;;;9.23;6.47;;;26.00;63.30;;;;;;4934472;29;20407;-78
2022/07/28 12:57:59;;;;;;;12.87;8.70;;;25.50;62.10;;;;;;4934131;29;20962;-78
2022/07/28 13:00:30;;;;;;;20.00;9.30;;;25.90;62.90;;;;;;4934223;29;20411;-78
2022/07/28 13:02:59;;;;;;;16.07;10.40;;;26.20;62.80;;;;;;4937766;29;20186;-78
2022/07/28 13:08:23;;;;;;;15.70;10.50;;;26.80;61.70;;;;;;4937857;29;20821;-79
2022/07/28 13:10:50;;;;;;;20.50;11.90;;;27.20;60.00;;;;;;4937757;29;20431;-78
2022/07/28 13:13:17;;;;;;;19.03;11.17;;;27.20;59.70;;;;;;4937444;29;20426;-78
2022/07/28 13:15:42;;;;;;;20.63;12.63;;;26.80;60.30;;;;;;4937713;29;20542;-77
2022/07/28 13:18:08;;;;;;;19.10;11.10;;;26.80;61.00;;;;;;4936083;29;20510;-79
2022/07/28 13:20:48;;;;;;;16.60;9.47;;;27.00;60.50;;;;;;4936374;29;20278;-78
2022/07/28 13:23:14;;;;;;;18.13;10.87;;;26.80;60.10;;;;;;4937592;29;20183;-77
2022/07/28 13:25:40;;;;;;;19.30;10.40;;;26.30;60.90;;;;;;4937268;29;20410;-78
2022/07/28 13:28:21;;;;;;;14.93;10.40;;;26.10;60.90;;;;;;4937116;29;20186;-79
2022/07/28 13:30:46;;;;;;;17.27;12.03;;;26.00;60.90;;;;;;4934115;29;20623;-79
2022/07/28 13:33:12;;;;;;;17.90;14.03;;;26.30;61.80;;;;;;4920223;29;20478;-78
2022/07/28 13:35:37;;;;;;;24.47;15.20;;;25.70;61.70;;;;;;4920111;29;20521;-79
2022/07/28 13:38:03;;;;;;;27.50;16.80;;;25.70;61.60;;;;;;4919317;29;20176;-79
2022/07/28 13:40:28;;;;;;;28.90;16.90;;;26.00;61.30;;;;;;4930333;29;20262;-78
2022/07/28 13:42:54;;;;;;;20.17;15.07;;;25.90;61.70;;;;;;4937644;29;20179;-78
2022/07/28 13:45:19;;;;;;;34.53;16.37;;;26.30;61.50;;;;;;4938558;29;20187;-78
2022/07/28 13:47:44;;;;;;;28.70;17.30;;;26.20;61.10;;;;;;4931910;29;20194;-78
2022/07/28 13:50:10;;;;;;;22.33;16.63;;;26.70;61.20;;;;;;4925234;29;20274;-78
2022/07/28 13:52:35;;;;;;;30.83;18.20;;;26.90;61.40;;;;;;4936594;29;20211;-79
2022/07/28 13:55:04;;;;;;;27.90;17.90;;;27.30;59.80;;;;;;4924008;29;20180;-78
2022/07/28 13:57:30;;;;;;;20.20;14.23;;;27.20;62.00;;;;;;4951952;29;20175;-80
2022/07/28 13:59:56;;;;;;;24.93;14.73;;;27.40;58.60;;;;;;4935014;28;20458;-78
2022/07/28 14:02:21;;;;;;;21.63;15.60;;;27.20;58.90;;;;;;4923081;29;20836;-78
2022/07/28 14:04:46;;;;;;;22.00;18.17;;;27.40;60.80;;;;;;4929375;29;20321;-77
2022/07/28 14:07:12;;;;;;;31.10;17.53;;;27.40;58.70;;;;;;4935503;29;20238;-77
2022/07/28 14:09:37;;;;;;;25.57;18.73;;;26.70;59.60;;;;;;4945109;29;20198;-78
2022/07/28 14:12:03;;;;;;;27.20;17.73;;;26.60;61.00;;;;;;4955832;28;20257;-77
2022/07/28 14:14:28;;;;;;;31.80;18.90;;;26.80;61.10;;;;;;4930593;29;20548;-78
2022/07/28 14:16:54;;;;;;;30.07;17.20;;;27.20;61.70;;;;;;4928314;29;20175;-79
2022/07/28 14:19:20;;;;;;;12.17;7.53;;;27.00;60.70;;;;;;4921112;29;20627;-76
2022/07/28 14:21:46;;;;;;;9.23;5.27;;;27.40;58.50;;;;;;4917563;29;20196;-78
2022/07/28 14:24:11;;;;;;;10.67;6.70;;;27.00;59.30;;;;;;4917450;29;20644;-78
2022/07/28 14:26:37;;;;;;;25.30;14.30;;;27.20;58.60;;;;;;4917415;29;20186;-78
2022/07/28 14:29:03;;;;;;;16.20;10.80;;;27.40;58.30;;;;;;4917610;29;20220;-77
2022/07/28 14:31:29;;;;;;;19.63;11.93;;;27.50;58.50;;;;;;4947790;29;20223;-78
2022/07/28 14:33:54;;;;;;;21.07;12.63;;;27.50;57.70;;;;;;4935373;29;20450;-78
2022/07/28 14:36:20;;;;;;;24.30;14.77;;;27.30;58.10;;;;;;4934770;29;20239;-78
2022/07/28 14:38:46;;;;;;;19.73;14.57;;;27.00;59.10;;;;;;4932931;29;20202;-77
2022/07/28 14:41:11;;;;;;;24.40;13.67;;;26.70;59.10;;;;;;4942697;29;20194;-78
2022/07/28 14:43:37;;;;;;;19.87;14.27;;;25.90;60.10;;;;;;4944329;29;20296;-78
2022/07/28 14:46:02;;;;;;;24.83;14.90;;;25.70;60.00;;;;;;4936281;29;20695;-77
2022/07/28 14:48:29;;;;;;;23.33;15.03;;;25.70;60.30;;;;;;4935938;29;20182;-78
2022/07/28 14:50:55;;;;;;;18.83;14.03;;;26.10;60.60;;;;;;4935994;29;20187;-75
2022/07/28 14:53:22;;;;;;;16.87;12.40;;;26.30;61.10;;;;;;4935799;29;20439;-75
2022/07/28 14:55:47;;;;;;;22.30;12.67;;;26.10;60.30;;;;;;4935827;29;20426;-78
2022/07/28 14:58:13;;;;;;;17.43;13.30;;;26.30;59.60;;;;;;4928414;29;20857;-77
2022/07/28 15:00:38;;;;;;;22.33;11.73;;;26.00;59.50;;;;;;4923801;29;20570;-77
2022/07/28 15:03:04;;;;;;;22.07;11.00;;;26.10;60.30;;;;;;4916770;29;20543;-79
2022/07/28 15:05:29;;;;;;;21.30;11.70;;;25.80;60.60;;;;;;4933108;29;20651;-77
2022/07/28 15:07:55;;;;;;;16.70;11.30;;;26.10;59.70;;;;;;4930701;29;20180;-77
2022/07/28 15:10:20;;;;;;;28.20;11.00;;;26.50;61.70;;;;;;4937820;29;20179;-78
2022/07/28 15:12:46;;;;;;;18.30;10.30;;;26.50;60.00;;;;;;4935170;29;20686;-77
2022/07/28 15:15:12;;;;;;;19.40;10.60;;;26.50;59.30;;;;;;4921878;29;20207;-77
2022/07/28 15:17:38;;;;;;;18.07;10.27;;;26.40;59.70;;;;;;4917611;29;20187;-77
2022/07/28 15:20:06;;;;;;;16.53;10.40;;;26.50;58.90;;;;;;4916322;29;20262;-77
2022/07/28 15:22:32;;;;;;;25.37;11.00;;;26.40;59.60;;;;;;4917919;29;20932;-78
2022/07/28 15:24:58;;;;;;;12.90;9.67;;;26.20;59.30;;;;;;4934946;29;20427;-77
2022/07/28 15:27:23;;;;;;;13.30;9.23;;;26.10;59.70;;;;;;4949915;29;20415;-76
2022/07/28 15:29:49;;;;;;;14.17;8.33;;;25.20;60.30;;;;;;4921500;29;20195;-78
2022/07/28 15:32:15;;;;;;;16.67;8.30;;;25.30;61.00;;;;;;4926179;29;20294;-79
2022/07/28 15:34:41;;;;;;;12.50;9.20;;;25.40;61.40;;;;;;4924067;29;20543;-78
2022/07/28 15:37:06;;;;;;;11.43;8.37;;;25.50;60.40;;;;;;4916416;29;20192;-79
2022/07/28 15:39:32;;;;;;;11.53;8.30;;;25.50;60.40;;;;;;4916495;29;20633;-78
2022/07/28 15:41:57;;;;;;;11.87;8.00;;;25.50;60.70;;;;;;4935623;29;20210;-77
2022/07/28 15:44:24;;;;;;;13.87;8.27;;;25.70;61.40;;;;;;4934883;29;20202;-77
2022/07/28 15:46:49;;;;;;;22.37;10.03;;;26.00;60.00;;;;;;4935565;29;20520;-78
2022/07/28 15:49:15;;;;;;;13.47;8.57;;;26.10;60.00;;;;;;4931980;29;20446;-78
2022/07/28 15:51:40;;;;;;;12.00;7.40;;;26.30;59.80;;;;;;4932595;29;20287;-77
2022/07/28 15:54:06;;;;;;;13.73;8.37;;;26.20;60.30;;;;;;4932432;29;20179;-78
2022/07/28 15:56:34;;;;;;;11.57;7.90;;;26.20;59.70;;;;;;4934766;29;20168;-79
2022/07/28 15:59:02;;;;;;;13.50;8.17;;;26.10;59.20;;;;;;4934468;29;21157;-78
2022/07/28 16:01:28;;;;;;;13.63;8.10;;;25.80;60.50;;;;;;4934145;29;20454;-78
2022/07/28 16:03:55;;;;;;;21.00;7.70;;;25.50;60.40;;;;;;4934466;29;20435;-79
2022/07/28 16:06:21;;;;;;;11.83;7.13;;;25.30;60.80;;;;;;4931940;29;20446;-80
2022/07/28 16:08:47;;;;;;;13.23;8.57;;;25.40;60.50;;;;;;4933874;29;20514;-79
2022/07/28 16:11:13;;;;;;;18.43;6.87;;;25.50;61.00;;;;;;4937402;28;20614;-79
2022/07/28 16:13:40;;;;;;;12.77;8.03;;;25.50;60.80;;;;;;4924744;29;20419;-78
2022/07/28 16:16:06;;;;;;;9.20;7.00;;;25.50;60.80;;;;;;4932819;29;21000;-76
2022/07/28 16:18:32;;;;;;;16.27;7.90;;;25.50;60.10;;;;;;4930961;29;20426;-77
2022/07/28 16:20:57;;;;;;;13.43;8.50;;;25.30;60.70;;;;;;4944367;29;20539;-78
2022/07/28 16:23:23;;;;;;;24.90;7.60;;;25.10;60.90;;;;;;4926674;29;20175;-77
2022/07/28 16:25:49;;;;;;;14.13;7.50;;;24.80;61.70;;;;;;4929790;29;20682;-78
2022/07/28 16:28:15;;;;;;;13.50;6.63;;;24.70;62.10;;;;;;4925831;29;20175;-77
2022/07/28 16:30:40;;;;;;;13.17;6.70;;;24.70;62.10;;;;;;4927270;29;20541;-79
2022/07/28 16:33:06;;;;;;;17.57;7.30;;;24.80;61.70;;;;;;4921606;29;20239;-79
2022/07/28 16:35:32;;;;;;;14.93;6.10;;;24.80;61.70;;;;;;4918134;29;20182;-80
2022/07/28 16:38:02;;;;;;;10.30;6.87;;;24.90;61.00;;;;;;4920899;29;20600;-80
2022/07/28 19:55:18;;;;;;;15.60;3.53;;;18.60;77.80;;;;;;4983979;28;20437;-79
2022/07/28 22:38:11;;;;;;;3.30;2.33;;;13.60;96.30;;;;;;5461036;23;20477;-79
2022/07/28 22:40:36;;;;;;;9.10;2.43;;;13.40;96.30;;;;;;4982932;28;20528;-79
2022/07/28 22:43:02;;;;;;;3.70;2.33;;;13.30;96.30;;;;;;4994667;28;20193;-80
2022/07/28 22:45:28;;;;;;;2.60;1.93;;;13.20;96.30;;;;;;4995291;28;20201;-79
2022/07/28 22:47:53;;;;;;;6.00;2.50;;;13.10;96.30;;;;;;4992776;28;20571;-80
2022/07/28 22:50:19;;;;;;;8.60;2.20;;;13.10;96.30;;;;;;4992720;28;20236;-79
2022/07/28 22:52:45;;;;;;;6.43;2.30;;;13.10;96.30;;;;;;4993919;28;20241;-79
2022/07/28 22:55:10;;;;;;;2.30;2.07;;;13.10;96.30;;;;;;4992686;28;20182;-79
2022/07/28 22:57:36;;;;;;;8.10;2.60;;;13.10;96.30;;;;;;4993965;28;20912;-79
2022/07/28 23:00:02;;;;;;;4.60;2.00;;;12.90;96.30;;;;;;4993866;28;20174;-79
2022/07/28 23:02:28;;;;;;;4.73;2.37;;;12.80;96.30;;;;;;4993859;28;20208;-79
2022/07/28 23:04:53;;;;;;;4.10;2.23;;;12.60;96.30;;;;;;4994018;28;20916;-79
2022/07/28 23:07:19;;;;;;;5.90;2.10;;;12.60;96.30;;;;;;4993605;28;20263;-79
2022/07/28 23:09:44;;;;;;;2.67;2.07;;;12.80;96.30;;;;;;4993370;28;20185;-80
2022/07/28 23:12:10;;;;;;;3.17;1.83;;;12.90;96.30;;;;;;4992236;28;20648;-79